sensor_id;sensor_type;location;lat;lon;timestamp;pressure;altitude;pressure_sealevel;temperature;humidity
58467;BME280;44255;49.244;7.726;2022-07-12T03:30:49;99060.50;;;11.66;64.86
58467;BME280;44255;49.244;7.726;2022-07-12T03:33:14;99059.72;;;11.64;65.53
58467;BME280;44255;49.244;7.726;2022-07-12T03:35:39;99062.81;;;11.91;64.31
58467;BME280;44255;49.244;7.726;2022-07-12T03:38:05;99063.38;;;11.98;63.82
58467;BME280;44255;49.244;7.726;2022-07-12T03:40:31;99061.56;;;11.81;64.54
58467;BME280;44255;49.244;7.726;2022-07-12T03:42:59;99072.16;;;11.84;64.60
58467;BME280;44255;49.244;7.726;2022-07-12T03:45:24;99071.66;;;11.76;64.47
58467;BME280;44255;49.244;7.726;2022-07-12T03:47:50;99074.34;;;11.76;64.62
58467;BME280;44255;49.244;7.726;2022-07-12T03:50:15;99071.75;;;11.92;63.77
58467;BME280;44255;49.244;7.726;2022-07-12T03:52:42;99072.22;;;11.65;65.17
58467;BME280;44255;49.244;7.726;2022-07-12T03:55:09;99076.00;;;11.61;65.03
58467;BME280;44255;49.244;7.726;2022-07-12T03:57:35;99070.44;;;12.01;62.83
58467;BME280;44255;49.244;7.726;2022-07-12T04:00:01;99074.06;;;11.82;63.45
58467;BME280;44255;49.244;7.726;2022-07-12T04:02:26;99076.56;;;11.85;64.08
58467;BME280;44255;49.244;7.726;2022-07-12T04:04:52;99080.59;;;11.94;63.63
58467;BME280;44255;49.244;7.726;2022-07-12T04:07:18;99077.75;;;11.80;63.61
58467;BME280;44255;49.244;7.726;2022-07-12T04:09:43;99077.59;;;11.83;63.50
58467;BME280;44255;49.244;7.726;2022-07-12T04:12:09;99073.25;;;11.98;62.76
58467;BME280;44255;49.244;7.726;2022-07-12T04:14:34;99079.88;;;11.90;63.34
58467;BME280;44255;49.244;7.726;2022-07-12T04:16:59;99080.94;;;11.88;63.93
58467;BME280;44255;49.244;7.726;2022-07-12T04:19:25;99075.31;;;11.92;63.21
58467;BME280;44255;49.244;7.726;2022-07-12T04:21:54;99086.56;;;12.18;62.77
58467;BME280;44255;49.244;7.726;2022-07-12T04:24:20;99078.19;;;12.07;62.62
58467;BME280;44255;49.244;7.726;2022-07-12T04:26:46;99090.19;;;12.35;61.55
58467;BME280;44255;49.244;7.726;2022-07-12T04:29:11;99082.59;;;12.26;61.91
58467;BME280;44255;49.244;7.726;2022-07-12T04:31:37;99080.63;;;12.12;62.48
58467;BME280;44255;49.244;7.726;2022-07-12T04:34:02;99078.56;;;12.17;62.26
58467;BME280;44255;49.244;7.726;2022-07-12T04:36:27;99082.31;;;12.14;62.67
58467;BME280;44255;49.244;7.726;2022-07-12T04:38:53;99084.31;;;12.27;62.52
58467;BME280;44255;49.244;7.726;2022-07-12T04:41:18;99071.75;;;12.61;61.37
58467;BME280;44255;49.244;7.726;2022-07-12T04:43:43;99063.38;;;12.67;60.83
58467;BME280;44255;49.244;7.726;2022-07-12T04:46:09;99069.97;;;12.77;60.53
58467;BME280;44255;49.244;7.726;2022-07-12T04:48:35;99067.63;;;12.71;60.75
58467;BME280;44255;49.244;7.726;2022-07-12T04:51:00;99068.63;;;12.69;61.20
58467;BME280;44255;49.244;7.726;2022-07-12T04:53:25;99067.25;;;12.61;60.65
58467;BME280;44255;49.244;7.726;2022-07-12T04:55:51;99069.84;;;12.63;61.03
58467;BME280;44255;49.244;7.726;2022-07-12T04:58:16;99066.19;;;12.48;62.50
58467;BME280;44255;49.244;7.726;2022-07-12T05:00:41;99066.59;;;12.74;61.07
58467;BME280;44255;49.244;7.726;2022-07-12T05:03:06;99077.66;;;12.68;62.17
58467;BME280;44255;49.244;7.726;2022-07-12T05:05:32;99058.34;;;12.93;61.26
58467;BME280;44255;49.244;7.726;2022-07-12T05:07:57;99078.09;;;13.10;61.29
58467;BME280;44255;49.244;7.726;2022-07-12T05:10:23;99067.44;;;13.08;61.43
58467;BME280;44255;49.244;7.726;2022-07-12T05:12:48;99072.44;;;13.14;61.33
58467;BME280;44255;49.244;7.726;2022-07-12T05:15:13;99071.06;;;13.23;61.15
58467;BME280;44255;49.244;7.726;2022-07-12T05:17:39;99084.94;;;13.47;60.65
58467;BME280;44255;49.244;7.726;2022-07-12T05:20:04;99085.31;;;13.41;60.71
58467;BME280;44255;49.244;7.726;2022-07-12T05:22:30;99087.28;;;13.54;60.46
58467;BME280;44255;49.244;7.726;2022-07-12T05:24:55;99085.78;;;13.48;60.73
58467;BME280;44255;49.244;7.726;2022-07-12T05:27:21;99093.00;;;13.63;60.37
58467;BME280;44255;49.244;7.726;2022-07-12T05:29:46;99091.13;;;13.80;60.38
58467;BME280;44255;49.244;7.726;2022-07-12T05:32:11;99083.22;;;13.77;60.35
58467;BME280;44255;49.244;7.726;2022-07-12T05:34:37;99096.63;;;13.79;60.97
58467;BME280;44255;49.244;7.726;2022-07-12T05:37:03;99104.47;;;13.83;60.90
58467;BME280;44255;49.244;7.726;2022-07-12T05:39:29;99093.81;;;13.80;61.45
58467;BME280;44255;49.244;7.726;2022-07-12T05:41:54;99100.31;;;14.08;60.78
58467;BME280;44255;49.244;7.726;2022-07-12T05:44:20;99102.75;;;14.13;61.64
58467;BME280;44255;49.244;7.726;2022-07-12T05:46:46;99100.22;;;14.10;62.40
58467;BME280;44255;49.244;7.726;2022-07-12T05:49:11;99111.72;;;14.28;62.08
58467;BME280;44255;49.244;7.726;2022-07-12T05:51:37;99099.59;;;14.35;62.01
58467;BME280;44255;49.244;7.726;2022-07-12T05:54:20;99103.25;;;14.48;62.18
58467;BME280;44255;49.244;7.726;2022-07-12T05:56:46;99104.41;;;14.44;62.46
58467;BME280;44255;49.244;7.726;2022-07-12T05:59:11;99105.50;;;14.71;61.66
58467;BME280;44255;49.244;7.726;2022-07-12T06:01:36;99095.56;;;14.86;61.27
58467;BME280;44255;49.244;7.726;2022-07-12T06:04:01;99102.97;;;15.11;60.41
58467;BME280;44255;49.244;7.726;2022-07-12T06:06:27;99108.28;;;15.13;61.18
58467;BME280;44255;49.244;7.726;2022-07-12T06:08:52;99106.94;;;15.20;61.19
58467;BME280;44255;49.244;7.726;2022-07-12T06:11:18;99109.22;;;15.41;60.52
58467;BME280;44255;49.244;7.726;2022-07-12T06:13:43;99120.84;;;15.56;60.49
58467;BME280;44255;49.244;7.726;2022-07-12T06:16:08;99114.09;;;15.76;60.26
58467;BME280;44255;49.244;7.726;2022-07-12T06:18:35;99112.13;;;15.93;59.74
58467;BME280;44255;49.244;7.726;2022-07-12T06:21:01;99124.47;;;15.97;59.52
58467;BME280;44255;49.244;7.726;2022-07-12T06:23:26;99123.66;;;16.22;58.68
58467;BME280;44255;49.244;7.726;2022-07-12T06:25:51;99129.53;;;16.29;59.13
58467;BME280;44255;49.244;7.726;2022-07-12T06:28:16;99133.88;;;16.44;58.98
58467;BME280;44255;49.244;7.726;2022-07-12T06:30:42;99136.06;;;16.65;59.01
58467;BME280;44255;49.244;7.726;2022-07-12T06:33:07;99131.09;;;16.72;58.65
58467;BME280;44255;49.244;7.726;2022-07-12T06:35:32;99125.88;;;16.82;58.84
58467;BME280;44255;49.244;7.726;2022-07-12T06:37:59;99132.13;;;17.08;57.91
58467;BME280;44255;49.244;7.726;2022-07-12T06:40:24;99133.53;;;17.14;58.68
58467;BME280;44255;49.244;7.726;2022-07-12T06:42:49;99139.13;;;17.37;58.71
58467;BME280;44255;49.244;7.726;2022-07-12T06:45:15;99132.38;;;17.55;57.92
58467;BME280;44255;49.244;7.726;2022-07-12T06:47:41;99144.03;;;17.69;57.60
58467;BME280;44255;49.244;7.726;2022-07-12T06:50:06;99139.34;;;17.95;57.50
58467;BME280;44255;49.244;7.726;2022-07-12T06:52:32;99145.34;;;18.12;56.06
58467;BME280;44255;49.244;7.726;2022-07-12T06:54:57;99145.34;;;18.36;54.76
58467;BME280;44255;49.244;7.726;2022-07-12T06:57:23;99141.91;;;18.57;53.57
58467;BME280;44255;49.244;7.726;2022-07-12T06:59:48;99141.69;;;18.71;53.11
58467;BME280;44255;49.244;7.726;2022-07-12T07:02:14;99142.94;;;18.67;51.45
58467;BME280;44255;49.244;7.726;2022-07-12T07:04:40;99144.72;;;19.03;50.33
58467;BME280;44255;49.244;7.726;2022-07-12T07:07:05;99136.19;;;19.07;49.95
58467;BME280;44255;49.244;7.726;2022-07-12T07:09:30;99128.41;;;19.14;48.84
58467;BME280;44255;49.244;7.726;2022-07-12T07:11:56;99135.31;;;19.18;49.22
58467;BME280;44255;49.244;7.726;2022-07-12T07:14:21;99134.41;;;19.52;48.64
58467;BME280;44255;49.244;7.726;2022-07-12T07:16:46;99134.59;;;19.71;49.21
58467;BME280;44255;49.244;7.726;2022-07-12T07:19:12;99133.69;;;19.94;47.97
58467;BME280;44255;49.244;7.726;2022-07-12T07:21:37;99131.31;;;20.00;47.52
58467;BME280;44255;49.244;7.726;2022-07-12T07:24:02;99130.97;;;19.94;47.68
58467;BME280;44255;49.244;7.726;2022-07-12T07:26:29;99134.06;;;20.22;47.14
58467;BME280;44255;49.244;7.726;2022-07-12T07:28:55;99137.66;;;20.43;47.87
58467;BME280;44255;49.244;7.726;2022-07-12T07:31:38;99139.53;;;20.43;46.75
58467;BME280;44255;49.244;7.726;2022-07-12T07:34:04;99144.88;;;20.33;46.26
58467;BME280;44255;49.244;7.726;2022-07-12T07:36:30;99135.53;;;20.26;46.11
58467;BME280;44255;49.244;7.726;2022-07-12T07:38:57;99136.63;;;20.56;46.09
58467;BME280;44255;49.244;7.726;2022-07-12T07:41:22;99140.75;;;20.72;46.64
58467;BME280;44255;49.244;7.726;2022-07-12T07:43:47;99142.00;;;20.98;45.75
58467;BME280;44255;49.244;7.726;2022-07-12T07:46:13;99151.69;;;20.81;46.02
58467;BME280;44255;49.244;7.726;2022-07-12T07:48:38;99154.50;;;20.70;45.06
58467;BME280;44255;49.244;7.726;2022-07-12T07:51:03;99157.94;;;20.72;45.01
58467;BME280;44255;49.244;7.726;2022-07-12T07:53:29;99157.91;;;20.93;44.71
58467;BME280;44255;49.244;7.726;2022-07-12T07:55:54;99156.47;;;20.89;44.81
58467;BME280;44255;49.244;7.726;2022-07-12T07:58:20;99146.38;;;21.11;44.96
58467;BME280;44255;49.244;7.726;2022-07-12T08:00:51;99147.78;;;21.05;44.49
58467;BME280;44255;49.244;7.726;2022-07-12T08:03:18;99146.53;;;21.50;44.49
58467;BME280;44255;49.244;7.726;2022-07-12T08:05:43;99140.50;;;21.47;43.83
58467;BME280;44255;49.244;7.726;2022-07-12T08:08:09;99133.50;;;21.64;44.27
58467;BME280;44255;49.244;7.726;2022-07-12T08:10:34;99139.41;;;21.79;43.51
58467;BME280;44255;49.244;7.726;2022-07-12T08:13:00;99137.09;;;21.64;42.96
58467;BME280;44255;49.244;7.726;2022-07-12T08:15:25;99135.66;;;21.70;44.12
58467;BME280;44255;49.244;7.726;2022-07-12T08:17:51;99138.81;;;21.65;43.19
58467;BME280;44255;49.244;7.726;2022-07-12T08:20:17;99146.28;;;21.63;42.73
58467;BME280;44255;49.244;7.726;2022-07-12T08:22:43;99135.22;;;21.65;42.60
58467;BME280;44255;49.244;7.726;2022-07-12T08:25:10;99135.22;;;21.65;42.51
58467;BME280;44255;49.244;7.726;2022-07-12T08:27:35;99143.25;;;21.16;42.83
58467;BME280;44255;49.244;7.726;2022-07-12T08:30:00;99142.03;;;21.08;42.43
58467;BME280;44255;49.244;7.726;2022-07-12T08:32:25;99143.66;;;21.42;42.67
58467;BME280;44255;49.244;7.726;2022-07-12T08:34:51;99134.75;;;21.50;42.26
58467;BME280;44255;49.244;7.726;2022-07-12T08:37:16;99144.38;;;21.44;41.88
58467;BME280;44255;49.244;7.726;2022-07-12T08:39:41;99140.50;;;21.47;41.68
58467;BME280;44255;49.244;7.726;2022-07-12T08:42:08;99146.78;;;21.88;40.85
58467;BME280;44255;49.244;7.726;2022-07-12T08:44:33;99154.09;;;21.88;40.58
58467;BME280;44255;49.244;7.726;2022-07-12T08:46:59;99154.97;;;22.08;41.54
58467;BME280;44255;49.244;7.726;2022-07-12T08:49:24;99154.03;;;21.78;41.25
58467;BME280;44255;49.244;7.726;2022-07-12T08:51:49;99163.59;;;22.13;40.96
58467;BME280;44255;49.244;7.726;2022-07-12T08:54:14;99154.56;;;22.03;40.88
58467;BME280;44255;49.244;7.726;2022-07-12T08:56:44;99161.44;;;22.36;40.10
58467;BME280;44255;49.244;7.726;2022-07-12T08:59:14;99160.00;;;22.52;40.32
58467;BME280;44255;49.244;7.726;2022-07-12T09:01:51;99156.22;;;22.73;39.51
58467;BME280;44255;49.244;7.726;2022-07-12T09:04:17;99157.44;;;22.60;39.79
58467;BME280;44255;49.244;7.726;2022-07-12T09:06:43;99166.19;;;22.54;39.65
58467;BME280;44255;49.244;7.726;2022-07-12T09:09:09;99159.84;;;22.63;40.35
58467;BME280;44255;49.244;7.726;2022-07-12T09:11:39;99152.09;;;22.59;39.67
58467;BME280;44255;49.244;7.726;2022-07-12T09:14:05;99148.75;;;22.75;39.33
58467;BME280;44255;49.244;7.726;2022-07-12T09:16:30;99158.75;;;22.94;38.81
58467;BME280;44255;49.244;7.726;2022-07-12T09:19:13;99155.25;;;22.74;38.99
58467;BME280;44255;49.244;7.726;2022-07-12T09:21:46;99155.44;;;22.90;38.62
58467;BME280;44255;49.244;7.726;2022-07-12T09:24:12;99147.16;;;22.82;38.16
58467;BME280;44255;49.244;7.726;2022-07-12T09:26:37;99137.97;;;23.11;37.64
58467;BME280;44255;49.244;7.726;2022-07-12T09:29:10;99139.38;;;23.25;39.19
58467;BME280;44255;49.244;7.726;2022-07-12T09:34:04;99141.69;;;22.82;38.22
58467;BME280;44255;49.244;7.726;2022-07-12T09:36:55;99131.47;;;22.74;38.03
58467;BME280;44255;49.244;7.726;2022-07-12T09:39:22;99138.91;;;22.92;37.77
58467;BME280;44255;49.244;7.726;2022-07-12T09:41:48;99140.59;;;23.03;37.82
58467;BME280;44255;49.244;7.726;2022-07-12T09:46:42;99137.53;;;23.25;37.80
58467;BME280;44255;49.244;7.726;2022-07-12T09:49:08;99134.44;;;23.57;37.54
58467;BME280;44255;49.244;7.726;2022-07-12T09:51:34;99129.22;;;23.45;37.28
58467;BME280;44255;49.244;7.726;2022-07-12T09:54:01;99131.72;;;23.57;37.77
58467;BME280;44255;49.244;7.726;2022-07-12T09:56:27;99128.88;;;23.76;37.20
58467;BME280;44255;49.244;7.726;2022-07-12T09:58:56;99130.59;;;23.95;37.29
58467;BME280;44255;49.244;7.726;2022-07-12T10:01:25;99133.53;;;23.94;37.85
58467;BME280;44255;49.244;7.726;2022-07-12T10:03:51;99125.72;;;23.71;36.20
58467;BME280;44255;49.244;7.726;2022-07-12T10:06:28;99118.63;;;23.78;38.66
58467;BME280;44255;49.244;7.726;2022-07-12T10:08:54;99120.75;;;23.85;36.81
58467;BME280;44255;49.244;7.726;2022-07-12T10:11:21;99129.66;;;23.41;36.44
58467;BME280;44255;49.244;7.726;2022-07-12T10:13:47;99137.19;;;23.57;36.71
58467;BME280;44255;49.244;7.726;2022-07-12T10:16:14;99138.38;;;24.00;36.24
58467;BME280;44255;49.244;7.726;2022-07-12T10:18:40;99142.97;;;24.18;36.44
58467;BME280;44255;49.244;7.726;2022-07-12T10:21:25;99145.06;;;23.70;36.52
58467;BME280;44255;49.244;7.726;2022-07-12T10:23:51;99135.78;;;23.99;35.33
58467;BME280;44255;49.244;7.726;2022-07-12T10:29:07;99131.00;;;24.01;35.47
58467;BME280;44255;49.244;7.726;2022-07-12T10:31:37;99132.91;;;23.54;36.64
58467;BME280;44255;49.244;7.726;2022-07-12T10:39:19;99124.75;;;23.90;36.11
58467;BME280;44255;49.244;7.726;2022-07-12T10:44:37;99130.06;;;24.10;35.67
58467;BME280;44255;49.244;7.726;2022-07-12T10:47:04;99125.13;;;24.14;34.99
58467;BME280;44255;49.244;7.726;2022-07-12T10:49:31;99130.66;;;24.22;35.55
58467;BME280;44255;49.244;7.726;2022-07-12T10:54:34;99139.91;;;24.21;35.30
58467;BME280;44255;49.244;7.726;2022-07-12T10:56:59;99143.63;;;24.12;35.98
58467;BME280;44255;49.244;7.726;2022-07-12T10:59:26;99138.81;;;23.95;34.67
58467;BME280;44255;49.244;7.726;2022-07-12T11:01:55;99131.88;;;24.19;34.68
58467;BME280;44255;49.244;7.726;2022-07-12T11:04:20;99126.75;;;24.24;34.44
58467;BME280;44255;49.244;7.726;2022-07-12T11:06:45;99129.66;;;24.23;35.60
58467;BME280;44255;49.244;7.726;2022-07-12T11:09:12;99125.84;;;24.16;34.33
58467;BME280;44255;49.244;7.726;2022-07-12T11:14:08;99128.88;;;24.49;35.09
58467;BME280;44255;49.244;7.726;2022-07-12T11:16:33;99128.00;;;24.48;34.39
58467;BME280;44255;49.244;7.726;2022-07-12T11:18:59;99126.03;;;24.41;34.63
58467;BME280;44255;49.244;7.726;2022-07-12T11:21:25;99133.41;;;24.22;34.21
58467;BME280;44255;49.244;7.726;2022-07-12T11:23:51;99133.88;;;24.35;33.34
58467;BME280;44255;49.244;7.726;2022-07-12T11:26:17;99136.31;;;24.20;32.68
58467;BME280;44255;49.244;7.726;2022-07-12T11:28:44;99126.50;;;24.80;31.61
58467;BME280;44255;49.244;7.726;2022-07-12T11:31:15;99127.66;;;26.98;29.31
58467;BME280;44255;49.244;7.726;2022-07-12T11:33:43;99117.56;;;26.49;30.47
58467;BME280;44255;49.244;7.726;2022-07-12T11:36:10;99127.50;;;26.67;30.39
58467;BME280;44255;49.244;7.726;2022-07-12T11:38:41;99129.38;;;29.17;26.80
58467;BME280;44255;49.244;7.726;2022-07-12T11:41:08;99135.13;;;28.47;27.30
58467;BME280;44255;49.244;7.726;2022-07-12T11:43:35;99139.25;;;32.34;23.17
58467;BME280;44255;49.244;7.726;2022-07-12T11:46:01;99115.75;;;32.23;23.05
58467;BME280;44255;49.244;7.726;2022-07-12T11:48:27;99112.00;;;28.64;26.96
58467;BME280;44255;49.244;7.726;2022-07-12T11:50:54;99121.00;;;27.64;29.09
58467;BME280;44255;49.244;7.726;2022-07-12T11:53:24;99148.69;;;31.70;23.99
58467;BME280;44255;49.244;7.726;2022-07-12T11:55:51;99152.50;;;34.10;21.71
58467;BME280;44255;49.244;7.726;2022-07-12T11:58:18;99161.69;;;32.79;22.54
58467;BME280;44255;49.244;7.726;2022-07-12T12:00:45;99159.84;;;34.62;20.88
58467;BME280;44255;49.244;7.726;2022-07-12T12:03:11;99164.69;;;34.99;20.34
58467;BME280;44255;49.244;7.726;2022-07-12T12:05:37;99103.63;;;32.64;22.69
58467;BME280;44255;49.244;7.726;2022-07-12T12:08:03;99133.19;;;30.99;25.17
58467;BME280;44255;49.244;7.726;2022-07-12T12:10:29;99155.94;;;31.71;24.10
58467;BME280;44255;49.244;7.726;2022-07-12T12:12:55;99158.53;;;34.39;21.43
58467;BME280;44255;49.244;7.726;2022-07-12T12:15:21;99148.38;;;34.77;20.62
58467;BME280;44255;49.244;7.726;2022-07-12T12:18:00;99126.22;;;34.38;21.23
58467;BME280;44255;49.244;7.726;2022-07-12T12:20:27;99100.59;;;33.97;20.74
58467;BME280;44255;49.244;7.726;2022-07-12T12:22:54;99101.41;;;33.00;22.48
58467;BME280;44255;49.244;7.726;2022-07-12T12:25:21;99092.91;;;33.93;20.92
58467;BME280;44255;49.244;7.726;2022-07-12T12:30:14;99102.59;;;33.31;21.87
58467;BME280;44255;49.244;7.726;2022-07-12T12:35:15;99099.81;;;31.56;23.08
58467;BME280;44255;49.244;7.726;2022-07-12T12:37:47;99099.50;;;31.99;23.23
58467;BME280;44255;49.244;7.726;2022-07-12T12:40:18;99093.56;;;31.47;23.46
58467;BME280;44255;49.244;7.726;2022-07-12T12:42:43;99091.00;;;31.45;24.20
58467;BME280;44255;49.244;7.726;2022-07-12T12:45:16;99089.44;;;30.87;24.51
58467;BME280;44255;49.244;7.726;2022-07-12T12:47:54;99088.06;;;31.05;24.09
58467;BME280;44255;49.244;7.726;2022-07-12T12:50:36;99089.59;;;31.08;23.80
58467;BME280;44255;49.244;7.726;2022-07-12T12:53:10;99086.03;;;31.21;23.66
58467;BME280;44255;49.244;7.726;2022-07-12T12:55:36;99085.31;;;31.05;24.35
58467;BME280;44255;49.244;7.726;2022-07-12T12:58:01;99085.88;;;31.00;25.05
58467;BME280;44255;49.244;7.726;2022-07-12T13:00:27;99082.78;;;31.59;24.29
58467;BME280;44255;49.244;7.726;2022-07-12T13:02:53;99081.31;;;30.79;26.01
58467;BME280;44255;49.244;7.726;2022-07-12T13:05:18;99082.28;;;30.65;24.73
58467;BME280;44255;49.244;7.726;2022-07-12T13:07:43;99083.44;;;30.27;25.57
58467;BME280;44255;49.244;7.726;2022-07-12T13:10:09;99071.66;;;30.46;24.90
58467;BME280;44255;49.244;7.726;2022-07-12T13:12:34;99075.03;;;30.13;25.03
58467;BME280;44255;49.244;7.726;2022-07-12T13:14:59;99075.66;;;29.94;25.53
58467;BME280;44255;49.244;7.726;2022-07-12T13:17:24;99076.28;;;30.61;25.00
58467;BME280;44255;49.244;7.726;2022-07-12T13:19:50;99073.16;;;29.40;25.90
58467;BME280;44255;49.244;7.726;2022-07-12T13:22:15;99083.53;;;28.63;26.59
58467;BME280;44255;49.244;7.726;2022-07-12T13:24:41;99074.72;;;29.65;25.20
58467;BME280;44255;49.244;7.726;2022-07-12T13:27:06;99065.53;;;29.79;26.77
58467;BME280;44255;49.244;7.726;2022-07-12T13:29:32;99070.03;;;30.24;26.04
58467;BME280;44255;49.244;7.726;2022-07-12T13:31:57;99067.69;;;29.47;26.28
58467;BME280;44255;49.244;7.726;2022-07-12T13:34:23;99067.59;;;28.58;27.31
58467;BME280;44255;49.244;7.726;2022-07-12T13:36:49;99068.44;;;28.36;27.73
58467;BME280;44255;49.244;7.726;2022-07-12T13:39:15;99071.38;;;29.32;26.74
58467;BME280;44255;49.244;7.726;2022-07-12T13:41:58;99065.69;;;29.19;26.98
58467;BME280;44255;49.244;7.726;2022-07-12T13:44:23;99056.13;;;29.22;26.69
58467;BME280;44255;49.244;7.726;2022-07-12T13:46:49;99060.44;;;29.24;25.83
58467;BME280;44255;49.244;7.726;2022-07-12T13:49:14;99057.91;;;29.44;26.11
58467;BME280;44255;49.244;7.726;2022-07-12T13:51:39;99057.97;;;29.14;26.58
58467;BME280;44255;49.244;7.726;2022-07-12T13:54:05;99061.56;;;28.70;25.93
58467;BME280;44255;49.244;7.726;2022-07-12T13:56:30;99059.88;;;28.69;26.15
58467;BME280;44255;49.244;7.726;2022-07-12T13:58:55;99059.56;;;28.79;25.60
58467;BME280;44255;49.244;7.726;2022-07-12T14:01:21;99060.00;;;29.06;25.30
58467;BME280;44255;49.244;7.726;2022-07-12T14:03:46;99066.16;;;28.93;25.68
58467;BME280;44255;49.244;7.726;2022-07-12T14:06:11;99071.38;;;28.87;24.96
58467;BME280;44255;49.244;7.726;2022-07-12T14:08:36;99062.13;;;29.25;25.09
58467;BME280;44255;49.244;7.726;2022-07-12T14:11:02;99049.94;;;29.71;24.30
58467;BME280;44255;49.244;7.726;2022-07-12T14:13:27;99052.19;;;29.61;25.13
58467;BME280;44255;49.244;7.726;2022-07-12T14:15:53;99053.03;;;29.46;25.28
58467;BME280;44255;49.244;7.726;2022-07-12T14:18:18;99050.84;;;29.57;24.72
58467;BME280;44255;49.244;7.726;2022-07-12T14:20:44;99044.63;;;29.70;24.55
58467;BME280;44255;49.244;7.726;2022-07-12T14:23:09;99045.84;;;29.67;24.82
58467;BME280;44255;49.244;7.726;2022-07-12T14:25:38;99054.41;;;29.51;26.97
58467;BME280;44255;49.244;7.726;2022-07-12T14:28:03;99046.13;;;29.36;25.01
58467;BME280;44255;49.244;7.726;2022-07-12T14:30:28;99045.00;;;29.30;25.53
58467;BME280;44255;49.244;7.726;2022-07-12T14:32:54;99042.31;;;29.37;26.53
58467;BME280;44255;49.244;7.726;2022-07-12T14:35:19;99045.53;;;29.40;25.95
58467;BME280;44255;49.244;7.726;2022-07-12T14:37:44;99040.91;;;29.26;25.87
58467;BME280;44255;49.244;7.726;2022-07-12T14:40:10;99045.22;;;29.13;26.22
58467;BME280;44255;49.244;7.726;2022-07-12T14:42:37;99034.34;;;29.12;26.14
58467;BME280;44255;49.244;7.726;2022-07-12T14:45:03;99035.97;;;29.06;25.69
58467;BME280;44255;49.244;7.726;2022-07-12T14:47:28;99036.94;;;28.83;25.72
58467;BME280;44255;49.244;7.726;2022-07-12T14:49:54;99037.41;;;29.02;25.35
58467;BME280;44255;49.244;7.726;2022-07-12T14:52:20;99033.59;;;29.03;25.15
58467;BME280;44255;49.244;7.726;2022-07-12T14:54:45;99033.03;;;29.08;25.27
58467;BME280;44255;49.244;7.726;2022-07-12T14:57:10;99034.94;;;28.77;25.51
58467;BME280;44255;49.244;7.726;2022-07-12T14:59:36;99039.06;;;28.66;25.77
58467;BME280;44255;49.244;7.726;2022-07-12T15:02:01;99027.75;;;28.38;25.36
58467;BME280;44255;49.244;7.726;2022-07-12T15:04:26;99027.59;;;28.84;25.31
58467;BME280;44255;49.244;7.726;2022-07-12T15:06:52;99031.88;;;28.72;26.20
58467;BME280;44255;49.244;7.726;2022-07-12T15:09:17;99039.78;;;28.90;25.99
58467;BME280;44255;49.244;7.726;2022-07-12T15:11:42;99024.28;;;29.04;26.19
58467;BME280;44255;49.244;7.726;2022-07-12T15:14:08;99022.56;;;29.18;26.50
58467;BME280;44255;49.244;7.726;2022-07-12T15:16:33;99024.53;;;29.24;25.80
58467;BME280;44255;49.244;7.726;2022-07-12T15:18:58;99024.66;;;29.01;26.11
58467;BME280;44255;49.244;7.726;2022-07-12T15:21:24;99017.25;;;29.01;26.01
58467;BME280;44255;49.244;7.726;2022-07-12T15:23:50;99018.75;;;29.04;25.73
58467;BME280;44255;49.244;7.726;2022-07-12T15:26:15;99030.47;;;28.76;25.11
58467;BME280;44255;49.244;7.726;2022-07-12T15:28:56;99020.09;;;28.48;25.22
58467;BME280;44255;49.244;7.726;2022-07-12T15:31:22;99013.75;;;28.47;25.57
58467;BME280;44255;49.244;7.726;2022-07-12T15:33:49;99014.19;;;28.51;25.00
58467;BME280;44255;49.244;7.726;2022-07-12T15:36:15;99018.97;;;28.57;23.98
58467;BME280;44255;49.244;7.726;2022-07-12T15:38:43;99022.41;;;28.21;24.32
58467;BME280;44255;49.244;7.726;2022-07-12T15:41:12;99009.09;;;27.63;24.88
58467;BME280;44255;49.244;7.726;2022-07-12T15:43:38;99013.31;;;27.74;25.32
58467;BME280;44255;49.244;7.726;2022-07-12T15:46:08;99009.88;;;28.18;25.94
58467;BME280;44255;49.244;7.726;2022-07-12T15:48:35;99009.38;;;28.15;25.40
58467;BME280;44255;49.244;7.726;2022-07-12T15:51:00;99004.06;;;28.28;25.10
58467;BME280;44255;49.244;7.726;2022-07-12T15:53:25;99005.41;;;28.32;23.98
58467;BME280;44255;49.244;7.726;2022-07-12T15:56:05;99002.41;;;28.04;25.45
58467;BME280;44255;49.244;7.726;2022-07-12T15:58:33;98996.88;;;27.89;25.28
58467;BME280;44255;49.244;7.726;2022-07-12T16:01:00;99002.00;;;27.92;25.29
58467;BME280;44255;49.244;7.726;2022-07-12T16:03:26;99007.50;;;27.69;26.09
58467;BME280;44255;49.244;7.726;2022-07-12T16:05:53;99000.31;;;27.83;25.58
58467;BME280;44255;49.244;7.726;2022-07-12T16:08:19;98998.44;;;27.83;25.23
58467;BME280;44255;49.244;7.726;2022-07-12T16:10:45;99004.88;;;27.75;25.82
58467;BME280;44255;49.244;7.726;2022-07-12T16:13:11;99005.00;;;27.82;26.14
58467;BME280;44255;49.244;7.726;2022-07-12T16:15:36;99002.41;;;27.81;25.75
58467;BME280;44255;49.244;7.726;2022-07-12T16:18:03;99015.78;;;27.92;26.23
58467;BME280;44255;49.244;7.726;2022-07-12T16:20:28;99005.84;;;27.83;26.29
58467;BME280;44255;49.244;7.726;2022-07-12T16:22:54;99003.53;;;27.71;25.62
58467;BME280;44255;49.244;7.726;2022-07-12T16:25:19;99010.75;;;27.72;25.66
58467;BME280;44255;49.244;7.726;2022-07-12T16:27:44;99016.06;;;27.74;24.96
58467;BME280;44255;49.244;7.726;2022-07-12T16:30:10;99011.47;;;27.43;25.92
58467;BME280;44255;49.244;7.726;2022-07-12T16:32:36;99011.56;;;27.81;25.02
58467;BME280;44255;49.244;7.726;2022-07-12T16:35:03;99001.31;;;27.43;25.82
58467;BME280;44255;49.244;7.726;2022-07-12T16:37:28;99008.38;;;27.46;26.12
58467;BME280;44255;49.244;7.726;2022-07-12T16:39:53;98998.09;;;27.31;26.11
58467;BME280;44255;49.244;7.726;2022-07-12T16:42:19;98996.94;;;27.26;26.25
58467;BME280;44255;49.244;7.726;2022-07-12T16:44:44;99002.06;;;27.29;26.14
58467;BME280;44255;49.244;7.726;2022-07-12T16:47:09;98998.94;;;27.40;26.11
58467;BME280;44255;49.244;7.726;2022-07-12T16:49:34;99005.72;;;27.53;26.62
58467;BME280;44255;49.244;7.726;2022-07-12T16:52:00;99004.00;;;27.52;25.59